Time;durP1;ratioP1;P1;durP2;ratioP2;P2;SDS_P1;SDS_P2;PMS_P1;PMS_P2;Temp;Humidity;BMP_temperature;BMP_pressure;BME280_temperature;BME280_humidity;BME280_pressure;Samples;Min_cycle;Max_cycle;Signal;HPM_P1;HPM_P2
2022/01/28 00:01:56;;;;;;;6.20;3.40;;;;;;99257.58;;;;106519;1298;63360;-39
2022/01/28 00:04:23;;;;;;;5.50;3.30;;;;;;99256.80;;;;106675;1297;68223;-39
2022/01/28 00:06:50;;;;;;;7.10;3.30;;;;;;99254.02;;;;106635;1296;63513;-39
2022/01/28 00:09:17;;;;;;;6.90;3.40;;;;;;99255.30;;;;106676;1295;63380;-42
2022/01/28 00:11:44;;;;;;;7.00;3.70;;;;;;99264.67;;;;106647;1297;63349;-42
2022/01/28 00:14:28;;;;;;;7.30;3.60;;;;;;99261.08;;;;106658;1297;63390;-38
2022/01/28 00:39:17;;;;;;;6.40;2.80;;;;;;99251.73;;;;106641;1296;63497;-38
2022/01/28 00:41:44;;;;;;;6.80;2.90;;;;;;99255.27;;;;106639;1296;63361;-39
2022/01/28 00:44:11;;;;;;;5.60;2.90;;;;;;99252.36;;;;106557;1297;65796;-42
2022/01/28 00:46:41;;;;;;;5.80;3.20;;;;;;99250.31;;;;106643;1295;63485;-46
2022/01/28 00:49:11;;;;;;;6.20;3.00;;;;;;99248.25;;;;106671;1297;63368;-43
2022/01/28 00:51:38;;;;;;;5.90;2.90;;;;;;99242.48;;;;106656;1297;63375;-42
2022/01/28 00:54:06;;;;;;;6.30;2.90;;;;;;99244.26;;;;106686;1296;63375;-42
2022/01/28 00:56:33;;;;;;;4.80;2.40;;;;;;99243.64;;;;106678;1297;67359;-48
2022/01/28 00:59:00;;;;;;;5.90;2.50;;;;;;99242.61;;;;106656;1296;63508;-38
2022/01/28 01:01:29;;;;;;;5.50;2.90;;;;;;99248.13;;;;106654;1297;63454;-38
2022/01/28 01:03:58;;;;;;;5.20;2.80;;;;;;99243.89;;;;106376;1297;345362;-45
2022/01/28 01:06:28;;;;;;;5.50;2.60;;;;;;99238.36;;;;106522;1298;63411;-43
2022/01/28 01:08:55;;;;;;;5.30;2.50;;;;;;99236.45;;;;106675;1296;67272;-38
2022/01/28 01:11:24;;;;;;;4.90;2.50;;;;;;99227.47;;;;106628;1297;63488;-39
2022/01/28 01:13:52;;;;;;;5.00;2.70;;;;;;99217.98;;;;106658;1297;63505;-42
2022/01/28 01:16:30;;;;;;;5.00;2.70;;;;;;99218.64;;;;106621;1297;63502;-43
2022/01/28 01:21:40;;;;;;;4.70;2.40;;;;;;99214.84;;;;106618;1297;67943;-38
2022/01/28 01:24:09;;;;;;;5.10;2.60;;;;;;99206.59;;;;106630;1297;63458;-43
2022/01/28 01:26:38;;;;;;;5.40;2.30;;;;;;99199.73;;;;106659;1296;63477;-39
2022/01/28 01:29:11;;;;;;;4.80;2.40;;;;;;99191.26;;;;106656;1297;63918;-42
2022/01/28 01:31:43;;;;;;;5.20;2.30;;;;;;99187.55;;;;106669;1296;63409;-42
2022/01/28 01:34:20;;;;;;;6.10;2.40;;;;;;99182.77;;;;106667;1296;67240;-39
2022/01/28 01:36:48;;;;;;;5.30;2.30;;;;;;99181.89;;;;106640;1297;63369;-38
2022/01/28 01:39:20;;;;;;;6.20;2.30;;;;;;99169.65;;;;106658;1297;63400;-38
2022/01/28 01:41:55;;;;;;;4.70;2.00;;;;;;99166.02;;;;106636;1297;63492;-38
2022/01/28 01:52:51;;;;;;;5.50;2.30;;;;;;99148.27;;;;106656;1297;63379;-45
2022/01/28 01:55:19;;;;;;;4.40;2.00;;;;;;99147.48;;;;106571;1297;63408;-42
2022/01/28 01:57:46;;;;;;;4.20;2.00;;;;;;99144.45;;;;106673;1297;63474;-39
2022/01/28 02:00:16;;;;;;;5.00;1.90;;;;;;99141.27;;;;106657;1296;67038;-39
2022/01/28 02:02:43;;;;;;;4.70;2.00;;;;;;99133.98;;;;106650;1297;63507;-42
2022/01/28 02:05:10;;;;;;;4.90;2.20;;;;;;99131.57;;;;106630;1297;63387;-43
2022/01/28 02:07:38;;;;;;;5.10;1.80;;;;;;99123.59;;;;106522;1297;63333;-39
2022/01/28 02:10:06;;;;;;;5.20;2.00;;;;;;99123.11;;;;106658;1296;63367;-39
2022/01/28 02:12:50;;;;;;;4.60;1.90;;;;;;99121.88;;;;106655;1297;66193;-46
2022/01/28 02:15:19;;;;;;;4.90;1.70;;;;;;99116.65;;;;106660;1297;63473;-43
2022/01/28 02:17:46;;;;;;;4.10;1.70;;;;;;99110.31;;;;106653;1296;63544;-46
2022/01/28 02:20:37;;;;;;;4.70;1.80;;;;;;99098.63;;;;106535;1298;63445;-42
2022/01/28 02:23:04;;;;;;;4.20;1.70;;;;;;99096.98;;;;106646;1297;63448;-44
2022/01/28 02:25:33;;;;;;;4.60;1.70;;;;;;99096.73;;;;106644;1296;66223;-43
2022/01/28 02:28:04;;;;;;;4.00;1.70;;;;;;99095.70;;;;106629;1296;63618;-38
2022/01/28 02:30:31;;;;;;;4.10;1.80;;;;;;99089.25;;;;106638;1295;63403;-38
2022/01/28 02:33:25;;;;;;;4.90;1.70;;;;;;99092.13;;;;106533;1297;63501;-42
2022/01/28 02:35:50;;;;;;;4.10;1.80;;;;;;99090.27;;;;106658;1296;63339;-42
2022/01/28 02:38:21;;;;;;;4.70;1.90;;;;;;99091.30;;;;106659;1296;67325;-42
2022/01/28 02:40:55;;;;;;;3.90;1.50;;;;;;99092.63;;;;106648;1297;63382;-43
2022/01/28 02:45:57;;;;;;;3.10;1.40;;;;;;99089.63;;;;106651;1295;63416;-42
2022/01/28 02:48:27;;;;;;;3.70;1.40;;;;;;99090.70;;;;106668;1297;63426;-43
2022/01/28 02:53:41;;;;;;;4.40;1.40;;;;;;99081.70;;;;106649;1297;63408;-45
2022/01/28 02:56:19;;;;;;;3.50;1.40;;;;;;99079.34;;;;106650;1296;63306;-39
2022/01/28 02:58:47;;;;;;;4.60;1.70;;;;;;99078.52;;;;106656;1297;63601;-43
2022/01/28 03:01:17;;;;;;;3.80;1.40;;;;;;99076.45;;;;106690;1297;63389;-42
2022/01/28 03:03:48;;;;;;;3.90;1.40;;;;;;99077.90;;;;106662;1296;66996;-38
2022/01/28 03:06:17;;;;;;;5.10;1.90;;;;;;99071.88;;;;106647;1296;63805;-39
2022/01/28 03:08:56;;;;;;;3.20;1.20;;;;;;99076.43;;;;106685;1297;63359;-38
2022/01/28 03:19:48;;;;;;;3.60;1.30;;;;;;99060.94;;;;106512;1295;63438;-39
2022/01/28 03:22:15;;;;;;;4.50;1.50;;;;;;99063.41;;;;106676;1296;63414;-39
2022/01/28 03:24:46;;;;;;;4.30;1.30;;;;;;99059.70;;;;106514;1297;63422;-38
2022/01/28 03:27:22;;;;;;;4.30;1.40;;;;;;99053.83;;;;106612;1295;63453;-41
2022/01/28 03:29:49;;;;;;;3.20;1.20;;;;;;99061.14;;;;106728;1297;67011;-42
2022/01/28 03:32:16;;;;;;;3.20;1.20;;;;;;99061.36;;;;106726;1297;63560;-39
2022/01/28 03:34:43;;;;;;;4.00;1.30;;;;;;99060.25;;;;106717;1297;63512;-38
2022/01/28 03:37:12;;;;;;;3.90;1.50;;;;;;99058.64;;;;106735;1297;63375;-41
2022/01/28 03:39:39;;;;;;;3.40;1.20;;;;;;99059.31;;;;106748;1297;63354;-42
2022/01/28 03:42:07;;;;;;;3.70;1.40;;;;;;99059.06;;;;106686;1297;67354;-43
2022/01/28 03:44:35;;;;;;;4.20;1.40;;;;;;99061.32;;;;106722;1297;63424;-38
2022/01/28 03:47:05;;;;;;;4.80;1.50;;;;;;99055.51;;;;106650;1297;63444;-38
2022/01/28 03:49:32;;;;;;;3.60;1.20;;;;;;99055.45;;;;106735;1297;63473;-39
2022/01/28 03:51:59;;;;;;;3.20;1.20;;;;;;99055.59;;;;106774;1296;63404;-38
2022/01/28 03:54:26;;;;;;;3.20;0.90;;;;;;99055.03;;;;106775;1295;66853;-38
2022/01/28 03:56:53;;;;;;;4.40;1.40;;;;;;99049.80;;;;106725;1297;63444;-38
2022/01/28 03:59:21;;;;;;;3.70;1.20;;;;;;99050.14;;;;106739;1297;63422;-37
2022/01/28 04:01:49;;;;;;;3.80;1.10;;;;;;99058.52;;;;106707;1297;63480;-39
2022/01/28 04:12:39;;;;;;;3.30;1.20;;;;;;99053.84;;;;106637;1297;63298;-38
2022/01/28 04:15:23;;;;;;;3.60;1.10;;;;;;99056.55;;;;106726;1297;63493;-39
2022/01/28 04:17:51;;;;;;;3.60;1.30;;;;;;99059.98;;;;106596;1296;63379;-42
2022/01/28 04:20:18;;;;;;;4.20;1.10;;;;;;99059.04;;;;106748;1295;66779;-42
2022/01/28 04:22:45;;;;;;;4.30;1.30;;;;;;99051.58;;;;106705;1297;63458;-39
2022/01/28 04:25:15;;;;;;;3.50;1.10;;;;;;99053.62;;;;106713;1297;63387;-38
2022/01/28 04:27:42;;;;;;;3.20;1.10;;;;;;99061.93;;;;106704;1295;63362;-38
2022/01/28 04:30:10;;;;;;;3.30;1.10;;;;;;99063.79;;;;106661;1297;63371;-39
2022/01/28 04:32:39;;;;;;;3.20;1.00;;;;;;99059.90;;;;106742;1296;66647;-42
2022/01/28 04:35:07;;;;;;;2.90;0.90;;;;;;99066.96;;;;106710;1295;63497;-42
2022/01/28 04:40:12;;;;;;;2.60;0.90;;;;;;99070.00;;;;106700;1296;63555;-42
2022/01/28 04:50:50;;;;;;;3.00;0.80;;;;;;99078.11;;;;106734;1297;63403;-38
2022/01/28 05:27:38;;;;;;;2.60;0.80;;;;;;99111.80;;;;106733;1297;63461;-42
2022/01/28 05:30:07;;;;;;;2.50;0.80;;;;;;99112.23;;;;106612;1297;63486;-42
2022/01/28 05:32:34;;;;;;;2.00;0.50;;;;;;99118.71;;;;106711;1297;63466;-42
2022/01/28 05:35:02;;;;;;;2.40;0.70;;;;;;99122.44;;;;106727;1295;63371;-42
2022/01/28 05:37:29;;;;;;;2.20;0.60;;;;;;99121.71;;;;106755;1297;66887;-42
2022/01/28 05:39:56;;;;;;;2.10;0.60;;;;;;99127.35;;;;106718;1295;63631;-34
2022/01/28 05:42:24;;;;;;;2.70;0.50;;;;;;99134.55;;;;106729;1295;63348;-38
2022/01/28 05:44:51;;;;;;;2.50;0.90;;;;;;99134.35;;;;106706;1297;63442;-38
2022/01/28 05:47:18;;;;;;;1.90;0.70;;;;;;99140.77;;;;106739;1295;63306;-38
2022/01/28 05:49:45;;;;;;;2.10;0.70;;;;;;99140.34;;;;106768;1296;65582;-38
2022/01/28 05:52:15;;;;;;;1.90;0.70;;;;;;99144.36;;;;106734;1297;63443;-39
2022/01/28 05:54:42;;;;;;;1.40;0.40;;;;;;99147.54;;;;106726;1295;63332;-39
2022/01/28 05:57:13;;;;;;;2.10;0.70;;;;;;99153.84;;;;106731;1297;63277;-40
2022/01/28 05:59:40;;;;;;;2.10;0.70;;;;;;99153.75;;;;106747;1297;63347;-42
2022/01/28 06:02:07;;;;;;;2.30;0.80;;;;;;99162.54;;;;106735;1297;65776;-42
2022/01/28 06:04:37;;;;;;;1.60;0.60;;;;;;99155.65;;;;106718;1297;63585;-38
2022/01/28 06:07:07;;;;;;;2.00;0.60;;;;;;99159.78;;;;106754;1295;63393;-39
2022/01/28 06:09:34;;;;;;;2.10;0.70;;;;;;99163.07;;;;106721;1295;63458;-39
2022/01/28 06:12:01;;;;;;;3.10;1.10;;;;;;99162.00;;;;106734;1296;63337;-39
2022/01/28 06:14:28;;;;;;;2.10;0.60;;;;;;99165.89;;;;106741;1295;65540;-38
2022/01/28 06:16:55;;;;;;;2.50;0.70;;;;;;99163.95;;;;106721;1296;63422;-38
2022/01/28 06:19:23;;;;;;;2.80;0.60;;;;;;99172.84;;;;106740;1297;63309;-42
2022/01/28 06:21:50;;;;;;;1.60;0.50;;;;;;99168.70;;;;106685;1295;63488;-42
2022/01/28 06:24:17;;;;;;;2.40;0.80;;;;;;99177.42;;;;106740;1296;63266;-42
2022/01/28 06:26:44;;;;;;;1.60;0.50;;;;;;99177.86;;;;106696;1295;67337;-42
2022/01/28 06:29:12;;;;;;;1.40;0.50;;;;;;99175.40;;;;106701;1295;63425;-42
2022/01/28 06:31:41;;;;;;;2.30;0.70;;;;;;99184.27;;;;106696;1297;63455;-42
2022/01/28 06:34:08;;;;;;;2.00;0.50;;;;;;99186.64;;;;106711;1296;63538;-42
2022/01/28 06:36:35;;;;;;;2.20;0.70;;;;;;99190.83;;;;106717;1295;63411;-42
2022/01/28 06:39:03;;;;;;;1.40;0.50;;;;;;99194.45;;;;106705;1295;66121;-44
2022/01/28 06:41:33;;;;;;;3.00;0.80;;;;;;99194.41;;;;106684;1295;63348;-38
2022/01/28 06:44:01;;;;;;;1.20;0.50;;;;;;99201.39;;;;106726;1296;63482;-38
2022/01/28 06:46:28;;;;;;;2.20;0.60;;;;;;99208.16;;;;106702;1297;63302;-39
2022/01/28 06:48:55;;;;;;;1.10;0.50;;;;;;99220.05;;;;106578;1297;63344;-39
2022/01/28 06:51:22;;;;;;;1.80;0.60;;;;;;99221.95;;;;106657;1296;66993;-38
2022/01/28 06:53:49;;;;;;;2.80;0.70;;;;;;99220.80;;;;106583;1297;63422;-38
2022/01/28 06:56:16;;;;;;;2.60;0.80;;;;;;99225.03;;;;106707;1296;63310;-41
2022/01/28 06:58:43;;;;;;;1.90;0.50;;;;;;99225.31;;;;106717;1297;63655;-42
2022/01/28 07:01:11;;;;;;;2.20;0.80;;;;;;99226.17;;;;106736;1295;63760;-42
2022/01/28 07:03:41;;;;;;;1.90;0.70;;;;;;99228.70;;;;106544;1296;68299;-43
2022/01/28 07:06:08;;;;;;;1.80;0.70;;;;;;99242.65;;;;106729;1297;63376;-43
2022/01/28 07:08:38;;;;;;;2.40;0.70;;;;;;99243.92;;;;106720;1296;63514;-40
2022/01/28 07:11:05;;;;;;;1.60;0.60;;;;;;99255.16;;;;106542;1297;63414;-38
2022/01/28 07:13:32;;;;;;;2.00;0.80;;;;;;99260.94;;;;106737;1296;63375;-42
2022/01/28 07:15:59;;;;;;;2.00;0.70;;;;;;99262.65;;;;106743;1297;67171;-42
2022/01/28 07:18:27;;;;;;;3.70;0.70;;;;;;99270.91;;;;106502;1297;63388;-42
2022/01/28 07:20:54;;;;;;;2.30;0.70;;;;;;99274.55;;;;106627;1296;63342;-42
2022/01/28 07:23:22;;;;;;;2.20;0.80;;;;;;99279.91;;;;106731;1297;63481;-43
2022/01/28 07:25:49;;;;;;;2.20;0.80;;;;;;99289.06;;;;106736;1296;63345;-42
2022/01/28 07:28:16;;;;;;;2.00;0.70;;;;;;99286.07;;;;106725;1296;66134;-39
2022/01/28 07:30:43;;;;;;;2.30;0.80;;;;;;99296.23;;;;106717;1296;63501;-38
2022/01/28 07:33:10;;;;;;;3.00;0.80;;;;;;99304.81;;;;106747;1297;63536;-37
2022/01/28 07:35:38;;;;;;;2.70;1.00;;;;;;99305.50;;;;106724;1296;63261;-38
2022/01/28 07:38:05;;;;;;;2.80;0.70;;;;;;99307.84;;;;106588;1296;63402;-41
2022/01/28 07:40:36;;;;;;;2.00;0.80;;;;;;99316.35;;;;106719;1295;66073;-38
2022/01/28 07:43:03;;;;;;;2.60;0.70;;;;;;99315.05;;;;106727;1297;63483;-41
2022/01/28 07:45:30;;;;;;;2.50;0.90;;;;;;99326.55;;;;106721;1297;63761;-42
2022/01/28 07:47:57;;;;;;;2.50;1.00;;;;;;99325.55;;;;106693;1297;63381;-38
2022/01/28 07:50:24;;;;;;;3.20;0.90;;;;;;99333.75;;;;106721;1297;63413;-37
2022/01/28 07:52:52;;;;;;;3.00;0.80;;;;;;99344.02;;;;106738;1296;65441;-42
2022/01/28 07:55:19;;;;;;;4.60;1.30;;;;;;99348.84;;;;106706;1296;63514;-42
2022/01/28 07:57:47;;;;;;;3.70;0.90;;;;;;99350.11;;;;106719;1296;63347;-43
2022/01/28 08:00:15;;;;;;;2.70;0.80;;;;;;99363.45;;;;106721;1296;63399;-42
2022/01/28 08:02:42;;;;;;;3.30;1.00;;;;;;99367.23;;;;106721;1295;63378;-38
2022/01/28 08:05:12;;;;;;;3.40;1.00;;;;;;99378.52;;;;106717;1296;65794;-38
2022/01/28 08:07:40;;;;;;;2.40;1.00;;;;;;99378.52;;;;106638;1297;63420;-38
2022/01/28 08:10:07;;;;;;;2.70;0.80;;;;;;99383.09;;;;106558;1297;63458;-43
2022/01/28 08:12:47;;;;;;;2.30;0.80;;;;;;99389.15;;;;106702;1295;63337;-39
2022/01/28 08:15:19;;;;;;;3.60;1.00;;;;;;99394.34;;;;106736;1295;63345;-39
2022/01/28 08:17:46;;;;;;;2.40;0.90;;;;;;99397.06;;;;106604;1297;68017;-43
2022/01/28 08:20:14;;;;;;;2.30;0.70;;;;;;99409.61;;;;106716;1295;63467;-43
2022/01/28 08:22:46;;;;;;;2.70;0.90;;;;;;99412.23;;;;106723;1296;63369;-38
2022/01/28 08:25:15;;;;;;;2.90;0.90;;;;;;99421.86;;;;106583;1296;63409;-38
2022/01/28 08:27:48;;;;;;;3.10;0.90;;;;;;99443.54;;;;106587;1297;64315;-38
2022/01/28 08:30:19;;;;;;;2.70;0.80;;;;;;99446.71;;;;106620;1296;65299;-38
2022/01/28 08:32:47;;;;;;;4.40;1.00;;;;;;99446.33;;;;106650;1296;63485;-43
2022/01/28 08:35:15;;;;;;;3.80;1.10;;;;;;99444.63;;;;106623;1297;63534;-41
2022/01/28 08:37:43;;;;;;;3.20;1.00;;;;;;99452.61;;;;106641;1296;63473;-38
2022/01/28 08:40:14;;;;;;;2.90;0.90;;;;;;99462.39;;;;106652;1296;63314;-37
2022/01/28 08:42:44;;;;;;;2.80;1.00;;;;;;99471.55;;;;106549;1296;65944;-42
2022/01/28 08:45:12;;;;;;;2.10;0.80;;;;;;99472.76;;;;106553;1297;63465;-42
2022/01/28 08:47:39;;;;;;;2.90;0.80;;;;;;99472.80;;;;106638;1297;63391;-39
2022/01/28 08:50:07;;;;;;;2.80;0.80;;;;;;99493.69;;;;106667;1297;63332;-40
2022/01/28 08:52:37;;;;;;;3.80;0.90;;;;;;99492.10;;;;106677;1297;63349;-38
2022/01/28 08:55:06;;;;;;;7.70;1.10;;;;;;99500.94;;;;106560;1296;68135;-40
2022/01/28 08:57:33;;;;;;;2.80;0.90;;;;;;99506.92;;;;106658;1296;63506;-40
2022/01/28 09:00:06;;;;;;;3.40;0.90;;;;;;99516.30;;;;106615;1296;64244;-36
2022/01/28 09:02:33;;;;;;;2.40;0.70;;;;;;99525.14;;;;106692;1296;63572;-42
2022/01/28 09:05:01;;;;;;;2.50;0.90;;;;;;99527.29;;;;106476;1295;316290;-43
2022/01/28 09:07:28;;;;;;;3.20;0.90;;;;;;99544.26;;;;106661;1297;66854;-43
2022/01/28 09:10:02;;;;;;;2.90;0.90;;;;;;99552.27;;;;106630;1297;63477;-43
2022/01/28 09:14:58;;;;;;;3.30;1.30;;;;;;99558.66;;;;106564;1296;63413;-45
2022/01/28 09:17:27;;;;;;;2.80;0.70;;;;;;99570.27;;;;106705;1296;63357;-42
2022/01/28 09:19:54;;;;;;;2.70;0.70;;;;;;99583.26;;;;106727;1296;66907;-41
2022/01/28 09:22:21;;;;;;;2.90;0.80;;;;;;99586.83;;;;106680;1295;63513;-39
2022/01/28 09:24:48;;;;;;;2.90;0.80;;;;;;99592.61;;;;106604;1296;63953;-42
2022/01/28 09:27:15;;;;;;;2.60;0.90;;;;;;99599.91;;;;106709;1295;63358;-39
2022/01/28 09:29:43;;;;;;;3.90;1.00;;;;;;99609.42;;;;106848;1293;63381;-40
2022/01/28 09:32:10;;;;;;;4.30;0.80;;;;;;99615.30;;;;106624;1296;66522;-35
2022/01/28 09:34:37;;;;;;;2.90;0.90;;;;;;99616.66;;;;106812;1293;63497;-33
2022/01/28 09:37:05;;;;;;;2.00;0.60;;;;;;99626.42;;;;106499;1297;63595;-33
2022/01/28 09:39:33;;;;;;;2.70;0.90;;;;;;99632.91;;;;106850;1293;63488;-31
2022/01/28 09:42:11;;;;;;;3.80;1.00;;;;;;99644.10;;;;106602;1296;63484;-40
2022/01/28 09:44:39;;;;;;;4.30;0.90;;;;;;99649.64;;;;106793;1294;66888;-39
2022/01/28 09:47:06;;;;;;;5.10;1.00;;;;;;99660.07;;;;106573;1295;63525;-34
2022/01/28 09:49:34;;;;;;;2.90;0.90;;;;;;99665.72;;;;106859;1293;63371;-33
2022/01/28 09:52:01;;;;;;;3.20;0.90;;;;;;99665.20;;;;106857;1294;63465;-33
2022/01/28 09:54:28;;;;;;;3.40;1.00;;;;;;99674.11;;;;106857;1292;63871;-37
2022/01/28 09:56:56;;;;;;;5.00;0.90;;;;;;99678.90;;;;106861;1293;67673;-33
2022/01/28 09:59:23;;;;;;;3.90;1.00;;;;;;99679.26;;;;106632;1297;63432;-38
2022/01/28 10:01:53;;;;;;;5.00;1.20;;;;;;99689.26;;;;106860;1293;63441;-42
2022/01/28 10:04:21;;;;;;;3.40;0.90;;;;;;99693.23;;;;106570;1296;63511;-43
2022/01/28 10:06:49;;;;;;;4.00;1.00;;;;;;99695.30;;;;106815;1293;63454;-42
2022/01/28 10:09:19;;;;;;;2.30;0.80;;;;;;99700.16;;;;106864;1293;66519;-33
2022/01/28 10:11:50;;;;;;;3.60;1.00;;;;;;99702.36;;;;106857;1292;63466;-31
2022/01/28 10:14:25;;;;;;;3.40;1.00;;;;;;99705.40;;;;106856;1293;63411;-41
2022/01/28 10:17:01;;;;;;;3.60;1.00;;;;;;99709.15;;;;106839;1294;63403;-39
2022/01/28 10:19:40;;;;;;;3.80;1.00;;;;;;99716.56;;;;106689;1294;63535;-42
2022/01/28 10:22:18;;;;;;;4.30;1.00;;;;;;99726.70;;;;106836;1294;67903;-36
2022/01/28 10:24:46;;;;;;;3.60;1.00;;;;;;99724.66;;;;106838;1293;63548;-42
2022/01/28 10:27:14;;;;;;;3.10;0.90;;;;;;99731.50;;;;106454;1296;63464;-31
2022/01/28 10:29:43;;;;;;;3.60;1.20;;;;;;99736.85;;;;106841;1293;63490;-41
2022/01/28 10:32:16;;;;;;;2.90;1.00;;;;;;99741.24;;;;106691;1293;63464;-36
2022/01/28 10:34:51;;;;;;;3.40;1.30;;;;;;99746.39;;;;106900;1293;67703;-34
2022/01/28 10:37:19;;;;;;;3.70;1.10;;;;;;99756.64;;;;106588;1294;64064;-40
2022/01/28 10:39:54;;;;;;;3.10;1.00;;;;;;99763.86;;;;106870;1293;63384;-40
2022/01/28 10:42:37;;;;;;;3.40;0.90;;;;;;99766.56;;;;106877;1293;63446;-39
2022/01/28 10:45:12;;;;;;;3.80;0.90;;;;;;99768.24;;;;106640;1297;63402;-42
2022/01/28 10:47:48;;;;;;;4.20;1.20;;;;;;99770.71;;;;106658;1296;68757;-37
2022/01/28 10:50:33;;;;;;;5.00;1.60;;;;;;99774.98;;;;106780;1294;63374;-40
2022/01/28 10:53:21;;;;;;;3.70;0.90;;;;;;99787.96;;;;106567;1297;63838;-37
2022/01/28 10:55:54;;;;;;;3.70;1.00;;;;;;99795.83;;;;106695;1294;63361;-33
2022/01/28 10:58:24;;;;;;;3.20;1.00;;;;;;99802.07;;;;106884;1293;63463;-37
2022/01/28 11:00:57;;;;;;;4.00;1.00;;;;;;99806.98;;;;106859;1294;66888;-41
2022/01/28 11:03:26;;;;;;;2.50;0.90;;;;;;99812.86;;;;106855;1293;63506;-43
2022/01/28 11:05:58;;;;;;;3.80;1.10;;;;;;99818.02;;;;106542;1296;63479;-41
2022/01/28 11:08:29;;;;;;;3.50;1.20;;;;;;99820.52;;;;106638;1294;63938;-34
2022/01/28 11:10:58;;;;;;;3.30;1.00;;;;;;99826.17;;;;106855;1294;63701;-39
2022/01/28 11:13:25;;;;;;;3.30;1.20;;;;;;99828.08;;;;106732;1296;66524;-34
2022/01/28 11:15:54;;;;;;;2.80;1.00;;;;;;99825.23;;;;106675;1296;63346;-43
2022/01/28 11:18:22;;;;;;;3.20;1.10;;;;;;99830.52;;;;106677;1296;63390;-42
2022/01/28 11:20:54;;;;;;;3.40;1.10;;;;;;99844.73;;;;106679;1296;63393;-41
2022/01/28 11:23:49;;;;;;;3.40;0.90;;;;;;99839.48;;;;106829;1293;63449;-36
2022/01/28 11:26:31;;;;;;;3.40;1.10;;;;;;99852.42;;;;106600;1296;66756;-44
2022/01/28 11:29:02;;;;;;;3.60;1.30;;;;;;99863.00;;;;106795;1293;63496;-39
2022/01/28 11:31:51;;;;;;;2.70;1.00;;;;;;99860.63;;;;106730;1294;63368;-41
2022/01/28 11:34:26;;;;;;;3.20;1.00;;;;;;99864.20;;;;106840;1293;63403;-38
2022/01/28 11:36:56;;;;;;;3.50;1.10;;;;;;99882.52;;;;106867;1294;63376;-40
2022/01/28 11:39:33;;;;;;;6.90;1.10;;;;;;99883.41;;;;106864;1294;66792;-43
2022/01/28 11:42:18;;;;;;;4.90;1.00;;;;;;99894.05;;;;106873;1294;63325;-43
2022/01/28 11:45:00;;;;;;;3.30;0.90;;;;;;99893.35;;;;106592;1296;63402;-46
2022/01/28 11:47:41;;;;;;;3.20;0.90;;;;;;99892.42;;;;106724;1294;63492;-36
2022/01/28 11:50:17;;;;;;;3.70;1.10;;;;;;99895.59;;;;106684;1297;63481;-37
2022/01/28 11:52:50;;;;;;;2.70;0.90;;;;;;99906.95;;;;106827;1293;66804;-36
2022/01/28 11:55:17;;;;;;;2.90;0.90;;;;;;99909.41;;;;106866;1294;63536;-36
2022/01/28 11:57:52;;;;;;;2.40;0.70;;;;;;99913.56;;;;106851;1294;63445;-42
2022/01/28 12:00:30;;;;;;;3.40;1.20;;;;;;99922.08;;;;106584;1296;63548;-39
2022/01/28 12:02:57;;;;;;;3.40;0.80;;;;;;99924.42;;;;106615;1296;63348;-42
2022/01/28 12:05:30;;;;;;;3.30;1.20;;;;;;99935.07;;;;106838;1294;66759;-41
2022/01/28 12:08:00;;;;;;;3.10;1.00;;;;;;99936.40;;;;106841;1293;63418;-38
2022/01/28 12:10:30;;;;;;;2.70;0.90;;;;;;99947.20;;;;106835;1293;63873;-34
2022/01/28 12:13:00;;;;;;;3.70;0.90;;;;;;99950.10;;;;106572;1297;63892;-43
2022/01/28 12:15:58;;;;;;;3.60;0.90;;;;;;99948.77;;;;106638;1294;63443;-42
2022/01/28 12:18:53;;;;;;;2.60;0.90;;;;;;99952.92;;;;106892;1293;66455;-41
2022/01/28 12:21:29;;;;;;;2.60;1.00;;;;;;99958.71;;;;106646;1296;63376;-45
2022/01/28 12:24:19;;;;;;;3.20;1.00;;;;;;99965.73;;;;106873;1293;63466;-45
2022/01/28 12:27:04;;;;;;;2.70;0.80;;;;;;99968.48;;;;106726;1293;63441;-46
2022/01/28 12:29:34;;;;;;;2.70;0.80;;;;;;99970.67;;;;106880;1294;63354;-42
2022/01/28 12:32:03;;;;;;;2.30;1.00;;;;;;99982.39;;;;106641;1296;65397;-46
2022/01/28 12:34:30;;;;;;;2.50;0.80;;;;;;99986.55;;;;106628;1294;63503;-43
2022/01/28 12:36:58;;;;;;;2.90;1.00;;;;;;99987.03;;;;106821;1292;63363;-45
2022/01/28 12:39:40;;;;;;;3.60;1.10;;;;;;99987.12;;;;106845;1294;63336;-48
2022/01/28 12:44:57;;;;;;;3.20;1.10;;;;;;99993.13;;;;106847;1293;69325;-44
2022/01/28 12:47:31;;;;;;;2.70;0.90;;;;;;100006.57;;;;106628;1295;63517;-40
2022/01/28 12:50:04;;;;;;;3.10;1.30;;;;;;99996.66;;;;106815;1293;63433;-40
2022/01/28 12:52:33;;;;;;;5.70;2.10;;;;;;100001.15;;;;106808;1293;63460;-46
2022/01/28 12:55:00;;;;;;;6.70;3.40;;;;;;100007.91;;;;106845;1294;63389;-42
2022/01/28 12:57:27;;;;;;;7.00;3.50;;;;;;100016.52;;;;106662;1294;67015;-43
2022/01/28 12:59:55;;;;;;;6.90;2.90;;;;;;100017.11;;;;106741;1294;63471;-41
2022/01/28 13:02:22;;;;;;;6.40;2.90;;;;;;100023.97;;;;106692;1297;63445;-43
2022/01/28 13:05:11;;;;;;;6.30;2.90;;;;;;100032.38;;;;106462;1297;63499;-43
2022/01/28 13:10:33;;;;;;;5.80;2.70;;;;;;100045.97;;;;106640;1296;66581;-43
2022/01/28 13:13:09;;;;;;;6.70;2.90;;;;;;100050.42;;;;106633;1296;63424;-36
2022/01/28 13:15:38;;;;;;;6.70;2.90;;;;;;100059.56;;;;106656;1296;63436;-38
2022/01/28 13:18:07;;;;;;;6.30;2.80;;;;;;100055.50;;;;106471;1297;63480;-40
2022/01/28 13:20:40;;;;;;;6.40;3.00;;;;;;100064.55;;;;106761;1294;63412;-37
2022/01/28 13:23:12;;;;;;;6.20;2.80;;;;;;100070.29;;;;106709;1294;66705;-40
2022/01/28 13:25:40;;;;;;;6.50;2.60;;;;;;100078.27;;;;106836;1294;63357;-37
2022/01/28 13:28:12;;;;;;;5.30;2.10;;;;;;100074.20;;;;106676;1294;63449;-37
2022/01/28 13:30:41;;;;;;;6.40;2.40;;;;;;100080.19;;;;106827;1294;63280;-43
2022/01/28 13:33:10;;;;;;;4.90;2.30;;;;;;100085.27;;;;106847;1293;63373;-41
2022/01/28 13:35:39;;;;;;;6.10;2.80;;;;;;100090.51;;;;106719;1294;65862;-35
2022/01/28 13:38:19;;;;;;;5.00;2.00;;;;;;100088.02;;;;106738;1297;63532;-45
2022/01/28 13:40:47;;;;;;;5.40;2.30;;;;;;100102.48;;;;106735;1296;63380;-43
2022/01/28 13:43:17;;;;;;;5.80;2.40;;;;;;100100.05;;;;106721;1296;63283;-48
2022/01/28 13:45:50;;;;;;;4.90;2.20;;;;;;100113.86;;;;106753;1296;63400;-56
2022/01/28 13:48:39;;;;;;;5.30;2.40;;;;;;100111.51;;;;106738;1296;69049;-44
2022/01/28 13:51:16;;;;;;;5.30;2.10;;;;;;100120.41;;;;106723;1296;63398;-37
2022/01/28 13:56:43;;;;;;;5.10;2.20;;;;;;100130.67;;;;106526;1297;63461;-46
2022/01/28 13:59:23;;;;;;;5.70;1.90;;;;;;100142.54;;;;106563;1297;63562;-42
2022/01/28 14:01:52;;;;;;;5.20;1.60;;;;;;100146.40;;;;106788;1294;66883;-43
2022/01/28 14:04:25;;;;;;;5.50;1.80;;;;;;100151.23;;;;106789;1294;63601;-39
2022/01/28 14:07:12;;;;;;;4.60;1.80;;;;;;100156.93;;;;106826;1294;63363;-45
2022/01/28 14:10:06;;;;;;;4.80;1.60;;;;;;100161.73;;;;106677;1294;63348;-44
2022/01/28 14:12:45;;;;;;;4.00;1.60;;;;;;100171.40;;;;106603;1297;64074;-43
2022/01/28 14:15:27;;;;;;;4.60;1.50;;;;;;100181.87;;;;106722;1296;67964;-46
2022/01/28 14:17:55;;;;;;;4.80;1.70;;;;;;100184.91;;;;106801;1293;63528;-43
2022/01/28 14:20:22;;;;;;;5.30;1.40;;;;;;100188.66;;;;106845;1294;63492;-43
2022/01/28 14:22:50;;;;;;;4.30;1.50;;;;;;100187.84;;;;106839;1294;63498;-43
2022/01/28 14:25:17;;;;;;;5.20;1.80;;;;;;100193.05;;;;106835;1294;63451;-43
2022/01/28 14:32:45;;;;;;;;;;;;;;100205.08;;;;106831;1293;63448;-45
2022/01/28 14:35:12;;;;;;;5.10;1.80;;;;;;100215.85;;;;106818;1293;63631;-45
2022/01/28 14:37:40;;;;;;;4.80;1.60;;;;;;100218.88;;;;106742;1296;63402;-45
2022/01/28 14:40:10;;;;;;;4.60;1.60;;;;;;100222.05;;;;106875;1293;66904;-44
2022/01/28 14:42:37;;;;;;;4.30;1.60;;;;;;100228.05;;;;106856;1293;63402;-44
2022/01/28 14:45:06;;;;;;;4.60;1.60;;;;;;100239.66;;;;106827;1293;63473;-44
2022/01/28 14:47:33;;;;;;;5.80;1.50;;;;;;100251.83;;;;106595;1293;63353;-44
2022/01/28 14:50:01;;;;;;;6.20;2.00;;;;;;100255.23;;;;106859;1293;63423;-44
2022/01/28 14:52:30;;;;;;;4.50;1.50;;;;;;100257.52;;;;106849;1293;66482;-45
2022/01/28 14:54:58;;;;;;;4.30;1.70;;;;;;100273.39;;;;106839;1293;63479;-45
2022/01/28 14:57:27;;;;;;;5.10;2.00;;;;;;100275.47;;;;106864;1293;63434;-46
2022/01/28 14:59:54;;;;;;;4.80;1.90;;;;;;100289.14;;;;106846;1293;63813;-45
2022/01/28 15:02:27;;;;;;;5.10;1.90;;;;;;100289.04;;;;106604;1296;63501;-37
2022/01/28 15:04:57;;;;;;;5.60;2.00;;;;;;100288.73;;;;106809;1293;68319;-37
2022/01/28 15:07:28;;;;;;;5.00;1.80;;;;;;100305.61;;;;106562;1296;63521;-36
2022/01/28 15:09:58;;;;;;;3.80;1.20;;;;;;100312.33;;;;106593;1294;63415;-38